Terminal Aerodrome Forecast
Issued by NWS

Home | Current Version | Previous Version | Graphics & Text | Print | Product List | Glossary On
Versions: 1 2 3 4 5 6 7 8 9 10 11 12 13 14 15 16 17 18 19 20 21 22
000
FTUS43 KICT 270920 AAB
TAFSLN
TAF AMD
KSLN 270920Z 2709/2806 VRB04KT 3SM +TSRA BKN040CB OVC080
      TEMPO 2709/2711 6SM -RA SCT040 OVC080
     FM271100 VRB04KT P6SM OVC080
     FM271400 16007KT P6SM BKN080
     FM271700 18007KT P6SM SCT080 OVC300=

USA.gov is the U.S. government's official web portal to all federal, state and local government web resources and services.